createdAt,value
2023-07-17T00:02:12.362Z,96.70
2023-07-17T00:04:40.448Z,96.70
2023-07-17T00:07:08.517Z,96.70
2023-07-17T00:09:36.600Z,96.70
2023-07-17T00:12:04.641Z,96.70
2023-07-17T00:14:32.417Z,96.70
2023-07-17T00:17:00.179Z,96.70
2023-07-17T00:19:29.526Z,96.70
2023-07-17T00:21:57.360Z,96.70
2023-07-17T00:24:25.221Z,96.70
2023-07-17T00:26:53.008Z,96.70
2023-07-17T00:29:23.702Z,96.70
2023-07-17T00:31:51.937Z,96.70
2023-07-17T00:34:20.371Z,96.70
2023-07-17T00:36:50.844Z,96.70
2023-07-17T00:39:20.531Z,96.70
2023-07-17T00:41:50.713Z,96.70
2023-07-17T00:44:18.808Z,96.70
2023-07-17T00:46:48.146Z,96.70
2023-07-17T00:49:16.086Z,96.70
2023-07-17T00:51:45.304Z,96.70
2023-07-17T00:54:18.045Z,96.70
2023-07-17T00:56:47.315Z,96.70
2023-07-17T00:59:15.668Z,96.70
2023-07-17T01:01:44.413Z,96.70
2023-07-17T01:04:12.238Z,96.70
2023-07-17T01:06:40.615Z,96.70
2023-07-17T01:09:09.796Z,96.70
2023-07-17T01:11:39.552Z,96.70
2023-07-17T01:14:15.044Z,96.70
2023-07-17T01:16:43.381Z,96.70
2023-07-17T01:19:11.144Z,96.70
2023-07-17T01:21:58.896Z,96.70
2023-07-17T01:24:28.505Z,96.70
2023-07-17T01:26:57.223Z,96.70
2023-07-17T01:29:25.595Z,96.70
2023-07-17T01:31:53.555Z,96.70
2023-07-17T01:34:21.491Z,96.70
2023-07-17T01:36:49.298Z,96.70
2023-07-17T01:39:17.285Z,96.70
2023-07-17T01:41:46.619Z,96.70
2023-07-17T01:44:14.607Z,96.70
2023-07-17T01:46:43.882Z,96.70
2023-07-17T01:49:11.875Z,96.70
2023-07-17T01:51:39.687Z,96.70
2023-07-17T01:54:07.486Z,96.70
2023-07-17T01:56:35.246Z,96.70
2023-07-17T01:59:04.514Z,96.70
2023-07-17T02:01:34.284Z,96.70
2023-07-17T02:04:02.597Z,96.70
2023-07-17T02:06:30.302Z,96.70
2023-07-17T02:08:58.097Z,96.70
2023-07-17T02:11:29.248Z,96.70
2023-07-17T02:13:57.264Z,96.70
2023-07-17T02:16:26.948Z,96.70
2023-07-17T02:18:54.942Z,96.70
2023-07-17T02:21:22.711Z,96.70
2023-07-17T02:23:50.756Z,96.70
2023-07-17T02:26:18.570Z,96.70
2023-07-17T02:28:46.364Z,96.70
2023-07-17T02:31:14.373Z,96.70
2023-07-17T02:33:43.736Z,96.70
2023-07-17T02:36:11.714Z,96.70
2023-07-17T02:38:39.555Z,96.70
2023-07-17T02:41:07.207Z,96.70
2023-07-17T02:43:34.956Z,96.70
2023-07-17T02:46:02.892Z,96.70
2023-07-17T02:48:30.727Z,96.70
2023-07-17T02:50:59.922Z,96.70
2023-07-17T02:53:27.746Z,96.70
2023-07-17T02:55:55.452Z,96.70
2023-07-17T02:58:23.343Z,96.70
2023-07-17T03:00:51.102Z,96.70
2023-07-17T03:03:19.071Z,96.70
2023-07-17T03:05:47.048Z,96.70
2023-07-17T03:08:16.654Z,96.70
2023-07-17T03:10:44.406Z,96.70
2023-07-17T03:13:13.024Z,96.70
2023-07-17T03:15:40.760Z,96.70
2023-07-17T03:18:08.608Z,96.70
2023-07-17T03:20:43.019Z,96.70
2023-07-17T03:23:10.952Z,96.70
2023-07-17T03:25:43.028Z,96.70
2023-07-17T03:28:11.488Z,96.70
2023-07-17T03:30:40.772Z,96.70
2023-07-17T03:33:08.829Z,96.70
2023-07-17T03:35:36.871Z,96.70
2023-07-17T03:38:05.114Z,96.70
2023-07-17T03:40:33.447Z,96.70
2023-07-17T03:43:03.232Z,96.70
2023-07-17T03:45:31.193Z,96.70
2023-07-17T03:48:00.356Z,96.70
2023-07-17T03:50:30.301Z,96.70
2023-07-17T03:52:58.157Z,96.70
2023-07-17T03:55:26.228Z,96.70
2023-07-17T03:57:54.404Z,96.70
2023-07-17T04:00:24.859Z,96.70
2023-07-17T04:02:52.820Z,96.70
2023-07-17T04:05:30.104Z,96.70
2023-07-17T04:07:58.649Z,96.70
2023-07-17T04:10:29.311Z,96.70
2023-07-17T04:12:57.609Z,96.70
2023-07-17T04:15:26.911Z,96.70
2023-07-17T04:17:55.021Z,96.70
2023-07-17T04:20:22.978Z,96.70
2023-07-17T04:22:50.880Z,96.70
2023-07-17T04:25:19.742Z,96.70
2023-07-17T04:27:47.826Z,96.70
2023-07-17T04:30:16.785Z,96.70
2023-07-17T04:32:46.332Z,96.70
2023-07-17T04:35:14.263Z,96.70
2023-07-17T04:37:43.695Z,96.70
2023-07-17T04:40:13.737Z,96.70
2023-07-17T04:42:42.070Z,96.70
2023-07-17T04:45:11.045Z,96.70
2023-07-17T04:47:40.233Z,96.70
2023-07-17T04:50:11.003Z,96.70
2023-07-17T04:52:38.982Z,96.70
2023-07-17T04:55:08.229Z,96.70
2023-07-17T04:57:37.042Z,96.70
2023-07-17T05:00:06.861Z,96.70
2023-07-17T05:02:35.037Z,96.70
2023-07-17T05:05:03.334Z,96.70
2023-07-17T05:07:33.346Z,96.70
2023-07-17T05:10:01.649Z,96.70
2023-07-17T05:12:30.208Z,96.70
2023-07-17T05:14:58.255Z,96.70
2023-07-17T05:17:26.300Z,96.70
2023-07-17T05:19:54.427Z,96.70
2023-07-17T05:22:22.465Z,96.70
2023-07-17T05:24:53.507Z,96.70
2023-07-17T05:27:21.721Z,96.70
2023-07-17T05:29:49.773Z,96.70
2023-07-17T05:32:18.945Z,96.70
2023-07-17T05:34:47.277Z,96.70
2023-07-17T05:37:17.310Z,96.70
2023-07-17T05:39:45.828Z,96.70
2023-07-17T05:42:16.791Z,96.70
2023-07-17T05:44:45.959Z,96.70
2023-07-17T05:47:13.966Z,96.70
2023-07-17T05:49:42.032Z,96.70
2023-07-17T05:52:11.387Z,96.70
2023-07-17T05:54:39.467Z,96.70
2023-07-17T05:57:08.046Z,96.70
2023-07-17T05:59:38.933Z,96.70
2023-07-17T06:02:07.405Z,96.70
2023-07-17T06:04:35.372Z,96.70
2023-07-17T06:07:03.750Z,96.70
2023-07-17T06:09:31.678Z,96.70
2023-07-17T06:11:59.666Z,96.70
2023-07-17T06:14:27.610Z,96.70
2023-07-17T06:16:57.160Z,96.70
2023-07-17T06:19:25.118Z,96.70
2023-07-17T06:21:53.648Z,96.70
2023-07-17T06:24:21.744Z,96.70
2023-07-17T06:26:50.065Z,96.70
2023-07-17T06:29:17.935Z,96.70
2023-07-17T06:31:46.036Z,96.70
2023-07-17T06:34:16.258Z,96.70
2023-07-17T06:36:44.178Z,96.70
2023-07-17T06:39:12.227Z,96.70
2023-07-17T06:41:40.685Z,96.70
2023-07-17T06:44:09.245Z,96.70
2023-07-17T06:46:37.342Z,96.70
2023-07-17T06:49:05.206Z,96.70
2023-07-17T06:51:35.343Z,96.70
2023-07-17T06:54:03.683Z,96.70
2023-07-17T06:56:31.594Z,96.70
2023-07-17T06:58:59.548Z,96.70
2023-07-17T07:01:27.310Z,96.70
2023-07-17T07:03:57.629Z,96.70
2023-07-17T07:06:25.683Z,96.70
2023-07-17T07:08:54.817Z,96.70
2023-07-17T07:11:22.606Z,96.70
2023-07-17T07:13:50.655Z,96.70
2023-07-17T07:16:19.043Z,96.70
2023-07-17T07:18:47.098Z,96.70
2023-07-17T07:21:15.509Z,96.70
2023-07-17T07:23:43.462Z,96.70
2023-07-17T07:26:13.086Z,96.70
2023-07-17T07:28:41.066Z,96.70
2023-07-17T07:31:09.064Z,96.70
2023-07-17T07:33:37.806Z,96.70
2023-07-17T07:36:06.420Z,96.70
2023-07-17T07:38:35.018Z,96.70
2023-07-17T07:41:04.364Z,96.70
2023-07-17T07:43:33.834Z,96.70
2023-07-17T07:46:01.918Z,96.70
2023-07-17T07:48:31.691Z,96.70
2023-07-17T07:50:59.917Z,96.70
2023-07-17T07:53:41.493Z,96.70
2023-07-17T07:56:11.116Z,96.70
2023-07-17T07:58:40.978Z,96.70
2023-07-17T08:01:09.280Z,96.70
2023-07-17T08:03:37.529Z,96.70
2023-07-17T08:06:05.851Z,96.70
2023-07-17T08:08:33.949Z,96.70
2023-07-17T08:11:03.393Z,96.70
2023-07-17T08:13:31.446Z,96.70
2023-07-17T08:16:01.442Z,96.70
2023-07-17T08:18:29.637Z,96.70
2023-07-17T08:20:57.741Z,96.70
2023-07-17T08:23:29.936Z,96.70
2023-07-17T08:25:58.383Z,96.70
2023-07-17T08:28:26.499Z,96.70
2023-07-17T08:30:54.934Z,96.70
2023-07-17T08:33:24.590Z,96.70
2023-07-17T08:35:53.071Z,96.70
2023-07-17T08:38:21.193Z,96.70
2023-07-17T08:40:53.963Z,96.70
2023-07-17T08:43:24.852Z,96.70
2023-07-17T08:45:54.460Z,96.70
2023-07-17T08:48:25.912Z,96.70
2023-07-17T08:50:55.518Z,96.70
2023-07-17T08:53:27.288Z,96.70
2023-07-17T08:55:57.879Z,96.70
2023-07-17T08:58:27.697Z,96.70
2023-07-17T09:00:56.925Z,96.70
2023-07-17T09:03:27.440Z,96.70
2023-07-17T09:05:55.938Z,96.70
2023-07-17T09:08:24.238Z,96.70
2023-07-17T09:11:03.411Z,96.70
2023-07-17T09:13:39.362Z,96.70
2023-07-17T09:16:15.838Z,96.70
2023-07-17T09:18:46.196Z,96.70
2023-07-17T09:21:15.939Z,96.70
2023-07-17T09:23:47.170Z,96.70
2023-07-17T09:26:15.901Z,96.70
2023-07-17T09:28:50.437Z,96.70
2023-07-17T09:31:28.885Z,96.70
2023-07-17T09:34:02.530Z,96.70
2023-07-17T09:36:30.958Z,96.70
2023-07-17T09:39:00.985Z,96.70
2023-07-17T09:41:30.209Z,96.70
2023-07-17T09:44:02.561Z,96.70
2023-07-17T09:46:32.185Z,96.70
2023-07-17T09:49:03.153Z,96.70
2023-07-17T09:51:33.515Z,96.70
2023-07-17T09:54:04.616Z,96.70
2023-07-17T09:56:35.293Z,96.70
2023-07-17T09:59:16.880Z,96.70
2023-07-17T10:01:49.260Z,96.70
2023-07-17T10:04:34.910Z,96.70
2023-07-17T10:07:04.243Z,96.70
2023-07-17T10:09:37.675Z,96.70
2023-07-17T10:12:09.083Z,96.70
2023-07-17T10:14:38.065Z,96.70
2023-07-17T10:17:23.436Z,96.70
2023-07-17T10:19:53.412Z,96.70
2023-07-17T10:22:21.635Z,96.70
2023-07-17T10:24:50.455Z,96.70
2023-07-17T10:27:18.542Z,96.70
2023-07-17T10:29:46.965Z,96.70
2023-07-17T10:32:16.995Z,96.70
2023-07-17T10:34:54.736Z,96.70
2023-07-17T10:37:42.422Z,96.70
2023-07-17T10:40:30.620Z,96.70
2023-07-17T10:43:12.677Z,96.70
2023-07-17T10:45:41.303Z,96.70
2023-07-17T10:48:09.740Z,96.70
2023-07-17T10:50:40.841Z,96.70
2023-07-17T10:53:10.762Z,96.70
2023-07-17T10:55:39.210Z,96.70
2023-07-17T10:58:07.495Z,96.70
2023-07-17T11:00:35.861Z,96.70
2023-07-17T11:03:04.891Z,96.70
2023-07-17T11:05:40.278Z,96.70
2023-07-17T11:08:09.095Z,96.70
2023-07-17T11:10:40.131Z,96.70
2023-07-17T11:13:09.605Z,96.70
2023-07-17T11:15:39.096Z,96.70
2023-07-17T11:18:09.528Z,96.70
2023-07-17T11:20:40.790Z,96.70
2023-07-17T11:23:12.780Z,96.70
2023-07-17T11:25:42.373Z,96.70
2023-07-17T11:28:11.779Z,96.70
2023-07-17T11:30:40.754Z,96.70
2023-07-17T11:33:09.899Z,96.70
2023-07-17T11:35:44.647Z,96.70
2023-07-17T11:38:15.820Z,96.70
2023-07-17T11:40:57.741Z,96.70
2023-07-17T11:43:29.362Z,96.70
2023-07-17T11:46:03.050Z,96.70
2023-07-17T11:48:32.568Z,96.70
2023-07-17T11:51:04.074Z,96.70
2023-07-17T11:53:32.850Z,96.70
2023-07-17T11:56:02.637Z,96.70
2023-07-17T11:58:33.024Z,96.70
2023-07-17T12:01:01.746Z,96.70
2023-07-17T12:03:30.891Z,96.70
2023-07-17T12:05:59.292Z,96.70
2023-07-17T12:08:29.612Z,96.70
2023-07-17T12:10:58.686Z,96.70
2023-07-17T12:13:26.876Z,96.70
2023-07-17T12:15:55.206Z,96.70
2023-07-17T12:18:23.462Z,96.70
2023-07-17T12:20:53.062Z,96.70
2023-07-17T12:23:23.236Z,96.70
2023-07-17T12:25:53.316Z,96.70
2023-07-17T12:28:26.191Z,96.70
2023-07-17T12:30:54.684Z,96.70
2023-07-17T12:33:22.905Z,96.70
2023-07-17T12:35:51.212Z,96.70
2023-07-17T12:38:19.746Z,96.70
2023-07-17T12:40:48.752Z,96.70
2023-07-17T12:43:20.498Z,96.70
2023-07-17T12:45:48.696Z,96.70
2023-07-17T12:48:16.861Z,96.70
2023-07-17T12:50:45.225Z,96.70
2023-07-17T12:53:13.702Z,96.70
2023-07-17T12:55:41.944Z,96.70
2023-07-17T12:58:10.125Z,96.70
2023-07-17T13:00:39.796Z,96.70
2023-07-17T13:03:08.049Z,96.70
2023-07-17T13:05:36.896Z,96.70
2023-07-17T13:08:07.500Z,96.70
2023-07-17T13:10:37.315Z,96.70
2023-07-17T13:13:06.252Z,96.70
2023-07-17T13:15:35.710Z,96.70
2023-07-17T13:18:06.172Z,96.70
2023-07-17T13:20:34.342Z,96.70
2023-07-17T13:23:02.438Z,96.70
2023-07-17T13:25:30.664Z,96.70
2023-07-17T13:27:58.764Z,96.70
2023-07-17T13:30:27.731Z,96.70
2023-07-17T13:32:57.596Z,96.70
2023-07-17T13:35:27.482Z,96.70
2023-07-17T13:37:55.781Z,96.70
2023-07-17T13:40:26.086Z,96.70
2023-07-17T13:42:54.453Z,96.70
2023-07-17T13:45:23.052Z,96.70
2023-07-17T13:47:51.570Z,96.70
2023-07-17T13:50:19.680Z,96.70
2023-07-17T13:52:49.462Z,96.70
2023-07-17T13:55:17.786Z,96.70
2023-07-17T13:57:46.165Z,96.70
2023-07-17T14:00:15.533Z,96.70
2023-07-17T14:02:44.204Z,96.70
2023-07-17T14:05:12.428Z,96.70
2023-07-17T14:07:40.739Z,96.70
2023-07-17T14:10:11.166Z,96.70
2023-07-17T14:12:39.383Z,96.70
2023-07-17T14:15:08.470Z,96.70
2023-07-17T14:17:36.852Z,96.70
2023-07-17T14:20:05.906Z,96.70
2023-07-17T14:22:34.408Z,96.70
2023-07-17T14:25:02.735Z,96.70
2023-07-17T14:27:32.493Z,96.70
2023-07-17T14:30:00.474Z,96.70
2023-07-17T14:32:28.782Z,96.70
2023-07-17T14:34:56.928Z,96.70
2023-07-17T14:37:25.234Z,96.70
2023-07-17T14:39:53.383Z,96.70
2023-07-17T14:42:21.635Z,96.70
2023-07-17T14:44:51.572Z,91.90
2023-07-17T14:47:19.762Z,91.60
2023-07-17T14:49:47.961Z,90.70
2023-07-17T14:52:16.220Z,88.80
2023-07-17T14:54:44.329Z,89.60
2023-07-17T14:57:14.607Z,90.20
2023-07-17T14:59:42.926Z,90.80
2023-07-17T15:02:12.555Z,90.10
2023-07-17T15:04:40.815Z,89.70
2023-07-17T15:07:09.808Z,89.60
2023-07-17T15:09:38.012Z,89.30
2023-07-17T15:12:06.965Z,89.60
2023-07-17T15:14:36.003Z,88.60
2023-07-17T15:17:04.413Z,89.10
2023-07-17T15:19:34.158Z,89.90
2023-07-17T15:22:02.346Z,89.40
2023-07-17T15:24:30.551Z,88.70
2023-07-17T15:26:58.618Z,88.70
2023-07-17T15:29:26.900Z,87.70
2023-07-17T15:31:55.062Z,88.80
2023-07-17T15:34:23.249Z,88.70
2023-07-17T15:36:53.436Z,89.30
2023-07-17T15:39:21.923Z,88.00
2023-07-17T15:41:50.153Z,87.90
2023-07-17T15:44:18.549Z,89.40
2023-07-17T15:46:47.191Z,89.90
2023-07-17T15:49:15.646Z,89.10
2023-07-17T15:51:43.962Z,89.80
2023-07-17T15:54:14.554Z,90.90
2023-07-17T15:56:43.008Z,91.80
2023-07-17T15:59:11.100Z,93.90
2023-07-17T16:01:39.346Z,96.20
2023-07-17T16:04:07.577Z,96.70
2023-07-17T16:06:35.885Z,96.70
2023-07-17T16:09:04.447Z,96.70
2023-07-17T16:11:34.305Z,96.70
2023-07-17T16:14:02.626Z,96.70
2023-07-17T16:16:30.993Z,96.70
2023-07-17T16:18:59.230Z,96.70
2023-07-17T16:21:27.426Z,96.70
2023-07-17T16:23:55.973Z,96.70
2023-07-17T16:26:24.265Z,96.70
2023-07-17T16:28:54.038Z,96.70
2023-07-17T16:31:22.227Z,96.70
2023-07-17T16:33:50.548Z,96.70
2023-07-17T16:36:19.051Z,96.70
2023-07-17T16:38:47.804Z,96.70
2023-07-17T16:41:16.005Z,96.70
2023-07-17T16:43:44.402Z,96.70
2023-07-17T16:46:14.221Z,96.70
2023-07-17T16:48:42.861Z,96.70
2023-07-17T16:51:11.535Z,96.70
2023-07-17T16:53:40.136Z,96.70
2023-07-17T16:56:08.584Z,96.70
2023-07-17T16:58:37.996Z,96.70
2023-07-17T17:01:07.944Z,96.70
2023-07-17T17:03:38.199Z,96.70
2023-07-17T17:06:06.661Z,96.70
2023-07-17T17:08:35.138Z,96.70
2023-07-17T17:11:04.257Z,96.70
2023-07-17T17:13:32.577Z,96.70
2023-07-17T17:16:00.978Z,96.70
2023-07-17T17:18:31.049Z,96.70
2023-07-17T17:21:00.833Z,96.70
2023-07-17T17:23:29.463Z,96.70
2023-07-17T17:25:57.678Z,96.70
2023-07-17T17:28:25.780Z,96.70
2023-07-17T17:30:54.020Z,96.70
2023-07-17T17:33:22.600Z,96.70
2023-07-17T17:35:50.740Z,96.70
2023-07-17T17:38:20.918Z,96.70
2023-07-17T17:40:49.157Z,96.70
2023-07-17T17:43:17.422Z,96.70
2023-07-17T17:45:46.724Z,96.70
2023-07-17T17:48:17.771Z,96.70
2023-07-17T17:50:46.287Z,96.70
2023-07-17T17:53:14.636Z,96.70
2023-07-17T17:55:44.576Z,96.70
2023-07-17T17:58:13.098Z,96.70
2023-07-17T18:00:41.420Z,96.70
2023-07-17T18:03:10.139Z,96.70
2023-07-17T18:05:38.447Z,96.70
2023-07-17T18:08:06.755Z,96.70
2023-07-17T18:10:36.295Z,96.70
2023-07-17T18:13:06.655Z,96.70
2023-07-17T18:15:35.160Z,96.70
2023-07-17T18:18:04.635Z,96.70
2023-07-17T18:20:35.157Z,96.70
2023-07-17T18:23:03.558Z,96.70
2023-07-17T18:25:32.072Z,96.70
2023-07-17T18:28:00.435Z,96.70
2023-07-17T18:30:30.536Z,96.70
2023-07-17T18:32:59.426Z,96.70
2023-07-17T18:35:27.976Z,96.70
2023-07-17T18:37:56.421Z,96.70
2023-07-17T18:40:28.020Z,96.70
2023-07-17T18:42:57.107Z,96.70
2023-07-17T18:45:25.540Z,96.70
2023-07-17T18:47:55.391Z,96.70
2023-07-17T18:50:23.846Z,96.70
2023-07-17T18:52:52.097Z,96.70
2023-07-17T18:55:20.874Z,96.70
2023-07-17T18:57:49.176Z,96.70
2023-07-17T19:00:21.743Z,96.70
2023-07-17T19:02:50.940Z,96.70
2023-07-17T19:05:22.282Z,96.70
2023-07-17T19:07:51.220Z,96.70
2023-07-17T19:10:19.637Z,96.70
2023-07-17T19:12:48.136Z,96.70
2023-07-17T19:15:16.524Z,96.70
2023-07-17T19:17:45.532Z,96.70
2023-07-17T19:20:14.002Z,96.70
2023-07-17T19:22:44.465Z,96.70
2023-07-17T19:25:13.547Z,96.70
2023-07-17T19:27:45.319Z,96.70
2023-07-17T19:30:14.749Z,96.70
2023-07-17T19:32:44.236Z,96.70
2023-07-17T19:35:12.720Z,96.70
2023-07-17T19:37:43.634Z,96.70
2023-07-17T19:40:12.739Z,96.70
2023-07-17T19:42:40.962Z,96.70
2023-07-17T19:45:10.401Z,96.70
2023-07-17T19:47:41.335Z,96.70
2023-07-17T19:50:12.168Z,96.70
2023-07-17T19:52:44.616Z,96.70
2023-07-17T19:55:13.165Z,96.70
2023-07-17T19:57:41.611Z,96.70
2023-07-17T20:00:11.800Z,96.70
2023-07-17T20:02:40.609Z,96.70
2023-07-17T20:05:09.532Z,96.70
2023-07-17T20:07:38.060Z,96.70
2023-07-17T20:10:10.181Z,96.70
2023-07-17T20:12:38.652Z,96.70
2023-07-17T20:15:08.713Z,96.70
2023-07-17T20:17:37.576Z,96.70
2023-07-17T20:20:08.856Z,96.70
2023-07-17T20:22:41.420Z,96.70
2023-07-17T20:25:12.728Z,96.70
2023-07-17T20:27:42.869Z,96.70
2023-07-17T20:30:12.819Z,96.70
2023-07-17T20:32:41.830Z,96.70
2023-07-17T20:35:26.782Z,96.70
2023-07-17T20:37:56.420Z,96.70
2023-07-17T20:40:26.327Z,96.70
2023-07-17T20:42:55.531Z,96.70
2023-07-17T20:45:46.922Z,96.70
2023-07-17T20:48:16.016Z,96.70
2023-07-17T20:51:03.295Z,96.70
2023-07-17T20:53:31.745Z,96.70
2023-07-17T20:56:01.482Z,96.70
2023-07-17T20:58:31.319Z,96.70
2023-07-17T21:01:05.980Z,96.70
2023-07-17T21:03:34.812Z,96.70
2023-07-17T21:06:04.612Z,96.70
2023-07-17T21:08:33.222Z,96.70
2023-07-17T21:11:03.090Z,96.70
2023-07-17T21:13:32.412Z,96.70
2023-07-17T21:16:00.910Z,96.70
2023-07-17T21:18:29.371Z,96.70
2023-07-17T21:20:57.868Z,96.70
2023-07-17T21:23:26.135Z,96.70
2023-07-17T21:25:54.555Z,96.70
2023-07-17T21:28:24.514Z,96.70
2023-07-17T21:30:52.800Z,96.70
2023-07-17T21:33:21.254Z,96.70
2023-07-17T21:35:49.313Z,96.70
2023-07-17T21:38:17.644Z,96.70
2023-07-17T21:40:45.845Z,96.70
2023-07-17T21:43:14.251Z,96.70
2023-07-17T21:45:43.805Z,96.70
2023-07-17T21:48:12.180Z,96.70
2023-07-17T21:50:40.617Z,96.70
2023-07-17T21:53:15.539Z,96.70
2023-07-17T21:55:44.915Z,96.70
2023-07-17T21:58:13.039Z,96.70
2023-07-17T22:00:42.825Z,96.70
2023-07-17T22:03:11.233Z,96.70
2023-07-17T22:05:41.025Z,96.70
2023-07-17T22:08:09.241Z,96.70
2023-07-17T22:10:37.534Z,96.70
2023-07-17T22:13:05.846Z,96.70
2023-07-17T22:15:34.129Z,96.70
2023-07-17T22:18:15.582Z,96.70
2023-07-17T22:20:48.008Z,96.70
2023-07-17T22:23:16.025Z,96.70
2023-07-17T22:25:44.255Z,96.70
2023-07-17T22:28:12.494Z,96.70
2023-07-17T22:30:40.667Z,96.70
2023-07-17T22:33:10.212Z,96.70
2023-07-17T22:35:38.408Z,96.70
2023-07-17T22:38:06.335Z,96.70
2023-07-17T22:40:34.462Z,96.70
2023-07-17T22:43:02.720Z,96.70
2023-07-17T22:45:30.952Z,96.70
2023-07-17T22:47:59.192Z,96.70
2023-07-17T22:50:29.393Z,96.70
2023-07-17T22:52:57.464Z,96.70
2023-07-17T22:55:25.611Z,96.70
2023-07-17T22:57:53.643Z,96.70
2023-07-17T23:00:21.700Z,96.70
2023-07-17T23:02:50.979Z,96.70
2023-07-17T23:05:19.829Z,96.70
2023-07-17T23:07:49.305Z,96.70
2023-07-17T23:10:17.553Z,96.70
2023-07-17T23:12:47.506Z,96.70
2023-07-17T23:15:15.714Z,96.70
2023-07-17T23:17:44.445Z,96.70
2023-07-17T23:20:12.838Z,96.70
2023-07-17T23:22:47.986Z,96.70
2023-07-17T23:25:19.319Z,96.70
2023-07-17T23:27:47.300Z,96.70
2023-07-17T23:30:15.364Z,96.70
2023-07-17T23:32:43.651Z,96.70
2023-07-17T23:35:12.126Z,96.70
2023-07-17T23:37:40.218Z,96.70
2023-07-17T23:40:10.310Z,96.70
2023-07-17T23:42:43.656Z,96.70
2023-07-17T23:45:13.252Z,96.70
2023-07-17T23:47:41.218Z,96.70
2023-07-17T23:50:10.306Z,96.70
2023-07-17T23:52:38.360Z,96.70
2023-07-17T23:55:10.163Z,96.70
2023-07-17T23:57:39.936Z,96.70
